createdAt,value
2017-11-06T00:00:08.898Z,7.50
2017-11-06T00:02:36.359Z,7.30
2017-11-06T00:05:03.986Z,7.30
2017-11-06T00:07:31.454Z,7.30
2017-11-06T00:09:58.933Z,7.60
2017-11-06T00:12:26.386Z,7.20
2017-11-06T00:14:53.872Z,7.20
2017-11-06T00:17:21.337Z,7.40
2017-11-06T00:19:48.887Z,7.20
2017-11-06T00:22:17.170Z,7.20
2017-11-06T00:24:45.403Z,7.30
2017-11-06T00:27:12.882Z,7.10
2017-11-06T00:29:40.362Z,7.10
2017-11-06T00:32:09.347Z,7.00
2017-11-06T00:34:36.802Z,6.90
2017-11-06T00:37:04.290Z,6.80
2017-11-06T00:39:32.511Z,6.70
2017-11-06T00:41:59.983Z,6.80
2017-11-06T00:44:27.465Z,6.80
2017-11-06T00:46:54.939Z,6.80
2017-11-06T00:49:23.155Z,6.80
2017-11-06T00:51:50.634Z,7.00
2017-11-06T00:54:18.198Z,7.20
2017-11-06T00:56:45.771Z,7.00
2017-11-06T00:59:14.751Z,7.10
2017-11-06T01:01:42.224Z,7.30
2017-11-06T01:04:09.691Z,7.00
2017-11-06T01:06:37.914Z,6.90
2017-11-06T01:09:05.518Z,7.20
2017-11-06T01:11:33.062Z,7.00
2017-11-06T01:14:00.550Z,7.20
2017-11-06T01:16:29.175Z,7.10
2017-11-06T01:18:56.626Z,7.00
2017-11-06T01:21:24.096Z,7.10
2017-11-06T01:23:51.587Z,7.10
2017-11-06T01:26:19.051Z,7.10
2017-11-06T01:28:46.531Z,7.00
2017-11-06T01:31:14.752Z,7.00
2017-11-06T01:33:42.249Z,7.20
2017-11-06T01:36:09.719Z,7.00
2017-11-06T01:38:37.975Z,6.70
2017-11-06T01:41:05.463Z,6.90
2017-11-06T01:43:33.711Z,6.80
2017-11-06T01:46:01.275Z,6.90
2017-11-06T01:48:28.742Z,6.80
2017-11-06T01:50:56.210Z,6.70
2017-11-06T01:53:24.466Z,6.80
2017-11-06T01:55:52.891Z,6.90
2017-11-06T01:58:21.107Z,7.00
2017-11-06T02:00:48.562Z,7.00
2017-11-06T02:03:16.873Z,7.00
2017-11-06T02:05:44.329Z,6.90
2017-11-06T02:08:11.795Z,7.00
2017-11-06T02:10:40.079Z,6.80
2017-11-06T02:13:08.315Z,6.70
2017-11-06T02:15:35.770Z,7.00
2017-11-06T02:18:03.250Z,6.80
2017-11-06T02:20:30.796Z,6.80
2017-11-06T02:22:58.263Z,6.70
2017-11-06T02:25:25.735Z,6.70
2017-11-06T02:27:53.954Z,6.60
2017-11-06T02:30:21.471Z,6.70
2017-11-06T02:32:48.930Z,6.50
2017-11-06T02:35:16.391Z,6.50
2017-11-06T02:37:44.638Z,6.40
2017-11-06T02:40:12.106Z,6.80
2017-11-06T02:42:39.662Z,6.60
2017-11-06T02:45:07.127Z,6.50
2017-11-06T02:47:34.683Z,6.50
2017-11-06T02:50:02.150Z,6.70
2017-11-06T02:52:29.613Z,6.50
2017-11-06T02:54:57.847Z,6.40
2017-11-06T02:57:25.403Z,6.20
2017-11-06T02:59:52.869Z,6.60
2017-11-06T03:02:20.335Z,6.60
2017-11-06T03:04:56.811Z,6.40
2017-11-06T03:07:24.275Z,6.40
2017-11-06T03:09:51.856Z,6.40
2017-11-06T03:12:19.407Z,6.30
2017-11-06T03:14:47.671Z,6.40
2017-11-06T03:17:15.149Z,6.30
2017-11-06T03:19:42.692Z,6.60
2017-11-06T03:22:10.151Z,6.30
2017-11-06T03:24:37.710Z,6.20
2017-11-06T03:27:05.179Z,6.20
2017-11-06T03:29:32.732Z,6.10
2017-11-06T03:32:01.013Z,6.10
2017-11-06T03:34:28.580Z,6.40
2017-11-06T03:36:56.132Z,6.30
2017-11-06T03:39:23.599Z,5.90
2017-11-06T03:41:51.839Z,6.20
2017-11-06T03:44:19.324Z,5.90
2017-11-06T03:46:46.889Z,6.20
2017-11-06T03:49:14.363Z,6.00
2017-11-06T03:51:42.594Z,6.00
2017-11-06T03:54:10.064Z,5.90
2017-11-06T03:56:37.565Z,5.90
2017-11-06T03:59:05.782Z,6.00
2017-11-06T04:01:33.372Z,5.80
2017-11-06T04:04:00.927Z,5.70
2017-11-06T04:06:29.198Z,5.60
2017-11-06T04:08:56.668Z,5.70
2017-11-06T04:11:24.241Z,5.50
2017-11-06T04:13:52.467Z,5.70
2017-11-06T04:16:20.041Z,5.60
2017-11-06T04:18:47.504Z,5.80
2017-11-06T04:21:14.976Z,6.10
2017-11-06T04:23:42.536Z,6.10
2017-11-06T04:26:10.118Z,6.20
2017-11-06T04:28:37.660Z,6.10
2017-11-06T04:31:05.127Z,6.40
2017-11-06T04:33:35.205Z,6.30
2017-11-06T04:36:02.691Z,6.20
2017-11-06T04:38:30.163Z,6.40
2017-11-06T04:40:58.413Z,6.30
2017-11-06T04:43:25.880Z,6.10
2017-11-06T04:45:53.339Z,6.40
2017-11-06T04:48:20.815Z,6.30
2017-11-06T04:50:49.079Z,6.50
2017-11-06T04:53:16.556Z,6.20
2017-11-06T04:55:44.791Z,6.20
2017-11-06T04:58:12.263Z,6.40
2017-11-06T05:00:39.723Z,6.00
2017-11-06T05:03:07.187Z,6.10
2017-11-06T05:05:34.778Z,6.00
2017-11-06T05:08:03.023Z,6.10
2017-11-06T05:10:30.488Z,5.90
2017-11-06T05:12:58.036Z,5.80
2017-11-06T05:15:25.508Z,5.70
2017-11-06T05:17:52.970Z,5.70
2017-11-06T05:20:21.220Z,5.90
2017-11-06T05:22:48.677Z,5.90
2017-11-06T05:25:16.151Z,6.10
2017-11-06T05:27:43.717Z,5.90
2017-11-06T05:30:11.184Z,5.90
2017-11-06T05:32:39.461Z,5.90
2017-11-06T05:35:07.697Z,5.70
2017-11-06T05:37:35.161Z,5.70
2017-11-06T05:40:02.736Z,5.70
2017-11-06T05:42:30.195Z,5.90
2017-11-06T05:44:57.736Z,6.10
2017-11-06T05:47:25.327Z,5.90
2017-11-06T05:49:52.800Z,5.90
2017-11-06T05:52:21.024Z,5.90
2017-11-06T05:54:48.507Z,5.80
2017-11-06T05:57:16.184Z,5.70
2017-11-06T05:59:44.439Z,5.80
2017-11-06T06:02:12.012Z,5.80
2017-11-06T06:04:39.486Z,5.70
2017-11-06T06:07:07.729Z,5.50
2017-11-06T06:09:35.201Z,5.90
2017-11-06T06:12:02.756Z,5.70
2017-11-06T06:14:30.327Z,5.80
2017-11-06T06:16:57.811Z,5.70
2017-11-06T06:19:25.355Z,5.60
2017-11-06T06:21:53.598Z,5.60
2017-11-06T06:24:21.071Z,5.80
2017-11-06T06:26:48.555Z,5.60
2017-11-06T06:29:16.808Z,5.30
2017-11-06T06:31:44.286Z,5.50
2017-11-06T06:34:12.517Z,5.60
2017-11-06T06:36:39.980Z,5.70
2017-11-06T06:39:07.464Z,5.80
2017-11-06T06:41:34.945Z,5.50
2017-11-06T06:44:03.172Z,5.50
2017-11-06T06:46:30.647Z,5.50
2017-11-06T06:48:58.116Z,5.50
2017-11-06T06:51:25.663Z,5.50
2017-11-06T06:53:53.132Z,5.90
2017-11-06T06:56:20.599Z,5.70
2017-11-06T06:58:48.829Z,5.60
2017-11-06T07:01:16.292Z,5.80
2017-11-06T07:03:43.768Z,5.60
2017-11-06T07:06:11.238Z,5.80
2017-11-06T07:08:38.787Z,5.60
2017-11-06T07:11:06.355Z,5.60
2017-11-06T07:13:33.924Z,5.30
2017-11-06T07:16:01.472Z,5.30
2017-11-06T07:18:30.455Z,5.30
2017-11-06T07:20:57.926Z,5.20
2017-11-06T07:23:25.396Z,5.30
2017-11-06T07:25:52.860Z,5.10
2017-11-06T07:28:21.107Z,5.20
2017-11-06T07:30:48.571Z,5.40
2017-11-06T07:33:16.047Z,5.40
2017-11-06T07:35:43.595Z,5.60
2017-11-06T07:38:11.072Z,5.50
2017-11-06T07:40:39.308Z,5.60
2017-11-06T07:43:06.783Z,5.70
2017-11-06T07:45:34.253Z,5.70
2017-11-06T07:48:01.756Z,5.70
2017-11-06T07:50:29.251Z,5.90
2017-11-06T07:52:57.085Z,5.80
2017-11-06T07:55:24.561Z,5.90
2017-11-06T07:57:52.055Z,5.90
2017-11-06T08:00:19.514Z,6.00
2017-11-06T08:02:47.772Z,5.90
2017-11-06T08:05:15.256Z,5.80
2017-11-06T08:07:43.498Z,6.10
2017-11-06T08:10:10.986Z,6.00
2017-11-06T08:12:39.265Z,6.60
2017-11-06T08:15:07.517Z,6.60
2017-11-06T08:17:35.083Z,6.40
2017-11-06T08:20:02.650Z,6.60
2017-11-06T08:22:30.112Z,6.60
2017-11-06T08:24:57.579Z,6.60
2017-11-06T08:27:25.043Z,6.60
2017-11-06T08:29:53.299Z,6.80
2017-11-06T08:32:21.162Z,6.70
2017-11-06T08:34:48.628Z,6.90
2017-11-06T08:37:16.085Z,7.00
2017-11-06T08:39:43.647Z,7.00
2017-11-06T08:42:11.104Z,7.30
2017-11-06T08:44:38.617Z,7.20
2017-11-06T08:47:06.071Z,7.30
2017-11-06T08:49:33.580Z,7.30
2017-11-06T08:52:01.055Z,7.30
2017-11-06T08:54:29.300Z,7.40
2017-11-06T08:56:56.862Z,7.50
2017-11-06T08:59:24.355Z,7.40
2017-11-06T09:01:52.585Z,7.40
2017-11-06T09:04:20.079Z,7.20
2017-11-06T09:06:47.536Z,7.40
2017-11-06T09:09:15.784Z,7.60
2017-11-06T09:11:43.339Z,7.60
2017-11-06T09:14:10.915Z,7.50
2017-11-06T09:16:38.392Z,7.60
2017-11-06T09:19:06.624Z,7.70
2017-11-06T09:21:34.104Z,7.90
2017-11-06T09:24:01.667Z,7.80
2017-11-06T09:26:29.308Z,7.80
2017-11-06T09:28:56.779Z,7.80
2017-11-06T09:31:24.265Z,7.80
2017-11-06T09:33:52.527Z,7.90
2017-11-06T09:36:20.033Z,7.80
2017-11-06T09:38:47.507Z,7.90
2017-11-06T09:41:14.979Z,8.00
2017-11-06T09:43:42.467Z,8.00
2017-11-06T09:46:09.955Z,8.00
2017-11-06T09:48:38.190Z,8.20
2017-11-06T09:51:05.762Z,8.10
2017-11-06T09:53:33.325Z,8.20
2017-11-06T09:56:00.788Z,8.30
2017-11-06T09:58:28.251Z,8.30
2017-11-06T10:00:56.603Z,8.60
2017-11-06T10:03:24.167Z,8.80
2017-11-06T10:05:51.732Z,8.80
2017-11-06T10:08:19.200Z,8.90
2017-11-06T10:10:47.423Z,9.10
2017-11-06T10:13:14.887Z,9.10
2017-11-06T10:15:42.376Z,9.20
2017-11-06T10:18:09.875Z,9.30
2017-11-06T10:20:38.132Z,9.40
2017-11-06T10:23:06.375Z,9.50
2017-11-06T10:25:33.855Z,9.40
2017-11-06T10:28:01.323Z,9.60
2017-11-06T10:30:29.571Z,9.60
2017-11-06T10:32:57.044Z,9.60
2017-11-06T10:35:24.611Z,9.80
2017-11-06T10:37:52.084Z,9.90
2017-11-06T10:40:20.328Z,10.10
2017-11-06T10:42:47.839Z,10.30
2017-11-06T10:45:16.075Z,10.30
2017-11-06T10:47:43.547Z,10.30
2017-11-06T10:50:11.093Z,10.50
2017-11-06T10:52:38.650Z,10.50
2017-11-06T10:55:06.115Z,10.50
2017-11-06T10:57:33.579Z,10.60
2017-11-06T11:00:01.133Z,10.70
2017-11-06T11:02:28.605Z,10.90
2017-11-06T11:04:56.064Z,10.90
2017-11-06T11:07:24.304Z,11.00
2017-11-06T11:09:51.785Z,11.00
2017-11-06T11:12:20.027Z,11.10
2017-11-06T11:14:47.511Z,11.10
2017-11-06T11:17:15.030Z,11.00
2017-11-06T11:19:42.495Z,11.10
2017-11-06T11:22:09.979Z,11.20
2017-11-06T11:24:37.449Z,11.30
2017-11-06T11:27:04.915Z,11.50
2017-11-06T11:29:32.385Z,11.50
2017-11-06T11:31:59.923Z,11.30
2017-11-06T11:34:27.386Z,11.20
2017-11-06T11:36:55.631Z,11.40
2017-11-06T11:39:23.092Z,11.30
2017-11-06T11:41:50.575Z,11.50
2017-11-06T11:44:18.043Z,11.70
2017-11-06T11:46:45.524Z,11.90
2017-11-06T11:49:13.755Z,11.90
2017-11-06T11:51:41.217Z,11.90
2017-11-06T11:54:08.787Z,11.90
2017-11-06T11:56:36.256Z,11.80
2017-11-06T11:59:05.288Z,12.10
2017-11-06T12:01:32.807Z,11.90
2017-11-06T12:04:00.368Z,11.90
2017-11-06T12:06:27.920Z,11.90
2017-11-06T12:08:55.403Z,12.10
2017-11-06T12:11:23.659Z,11.90
2017-11-06T12:13:51.153Z,11.80
2017-11-06T12:16:18.620Z,11.70
2017-11-06T12:18:46.091Z,11.50
2017-11-06T12:21:19.429Z,11.50
2017-11-06T12:23:46.903Z,11.40
2017-11-06T12:26:15.151Z,11.30
2017-11-06T12:28:42.629Z,11.30
2017-11-06T12:31:10.103Z,11.20
2017-11-06T12:33:38.335Z,11.30
2017-11-06T12:36:05.796Z,11.30
2017-11-06T12:38:33.280Z,11.30
2017-11-06T12:41:00.831Z,11.40
2017-11-06T12:43:29.086Z,11.60
2017-11-06T12:45:56.564Z,11.60
2017-11-06T12:48:24.040Z,11.40
2017-11-06T12:50:51.508Z,11.30
2017-11-06T12:53:19.752Z,11.10
2017-11-06T12:55:47.219Z,11.00
2017-11-06T12:58:14.699Z,10.80
2017-11-06T13:00:42.950Z,10.80
2017-11-06T13:03:11.935Z,10.60
2017-11-06T13:05:39.413Z,10.60
2017-11-06T13:08:06.903Z,10.50
2017-11-06T13:10:34.423Z,10.30
2017-11-06T13:13:01.896Z,10.20
2017-11-06T13:15:30.143Z,10.00
2017-11-06T13:17:57.604Z,10.00
2017-11-06T13:20:25.082Z,10.10
2017-11-06T13:22:52.633Z,10.10
2017-11-06T13:25:20.529Z,9.90
2017-11-06T13:27:48.744Z,9.70
2017-11-06T13:30:16.226Z,9.70
2017-11-06T13:32:43.791Z,9.80
2017-11-06T13:35:11.257Z,9.70
2017-11-06T13:37:40.234Z,9.60
2017-11-06T13:40:07.791Z,9.50
2017-11-06T13:42:35.279Z,9.50
2017-11-06T13:45:03.520Z,9.40
2017-11-06T13:47:30.968Z,9.70
2017-11-06T13:49:58.460Z,9.40
2017-11-06T13:52:25.957Z,9.50
2017-11-06T13:54:53.487Z,9.50
2017-11-06T13:57:22.460Z,9.50
2017-11-06T13:59:49.998Z,9.50
2017-11-06T14:02:17.457Z,9.40
2017-11-06T14:04:44.947Z,9.40
2017-11-06T14:07:12.398Z,9.40
2017-11-06T14:09:39.972Z,9.40
2017-11-06T14:12:07.433Z,9.40
2017-11-06T14:14:35.680Z,9.40
2017-11-06T14:17:03.150Z,9.50
2017-11-06T14:19:30.611Z,9.30
2017-11-06T14:21:58.071Z,9.30
2017-11-06T14:24:25.535Z,9.20
2017-11-06T14:26:53.016Z,9.10
2017-11-06T14:29:21.243Z,9.10
2017-11-06T14:31:48.735Z,9.10
2017-11-06T14:34:16.279Z,9.10
2017-11-06T14:36:43.743Z,9.10
2017-11-06T14:39:11.247Z,9.20
2017-11-06T14:41:38.718Z,9.10
2017-11-06T14:44:06.210Z,9.10
2017-11-06T14:46:33.677Z,9.20
2017-11-06T14:49:01.215Z,9.20
2017-11-06T14:51:28.691Z,9.30
2017-11-06T14:53:56.256Z,9.10
2017-11-06T14:56:23.815Z,9.10
2017-11-06T14:58:51.282Z,9.10
2017-11-06T15:01:18.829Z,9.20
2017-11-06T15:03:46.291Z,9.30
2017-11-06T15:06:13.767Z,9.40
2017-11-06T15:08:41.999Z,9.30
2017-11-06T15:11:09.524Z,9.40
2017-11-06T15:13:37.054Z,9.30
2017-11-06T15:16:05.313Z,9.30
2017-11-06T15:18:33.945Z,9.40
2017-11-06T15:21:02.162Z,9.40
2017-11-06T15:23:29.633Z,9.50
2017-11-06T15:25:57.134Z,9.40
2017-11-06T15:28:25.395Z,9.40
2017-11-06T15:30:53.632Z,9.40
2017-11-06T15:33:21.116Z,9.20
2017-11-06T15:35:50.148Z,9.40
2017-11-06T15:38:17.667Z,9.40
2017-11-06T15:40:45.228Z,9.20
2017-11-06T15:43:12.704Z,9.20
2017-11-06T15:45:40.922Z,9.20
2017-11-06T15:48:08.405Z,9.40
2017-11-06T15:50:35.881Z,9.20
2017-11-06T15:53:04.886Z,9.40
2017-11-06T15:55:33.112Z,9.30
2017-11-06T15:58:00.662Z,9.30
2017-11-06T16:00:28.116Z,9.30
2017-11-06T16:02:55.631Z,9.20
2017-11-06T16:05:23.109Z,9.20
2017-11-06T16:07:51.354Z,9.10
2017-11-06T16:10:18.844Z,9.20
2017-11-06T16:12:47.068Z,9.00
2017-11-06T16:15:14.553Z,9.10
2017-11-06T16:17:42.018Z,9.00
2017-11-06T16:20:10.704Z,9.10
2017-11-06T16:22:39.718Z,9.20
2017-11-06T16:25:07.955Z,9.20
2017-11-06T16:27:35.434Z,9.40
2017-11-06T16:30:02.960Z,9.20
2017-11-06T16:32:30.453Z,9.30
2017-11-06T16:34:58.683Z,9.20
2017-11-06T16:37:26.147Z,9.40
2017-11-06T16:39:53.624Z,9.10
2017-11-06T16:42:21.127Z,9.10
2017-11-06T16:44:49.373Z,9.00
2017-11-06T16:47:16.848Z,9.40
2017-11-06T16:49:44.354Z,9.00
2017-11-06T16:52:11.821Z,9.00
2017-11-06T16:54:39.302Z,9.00
2017-11-06T16:57:06.763Z,8.90
2017-11-06T16:59:34.239Z,9.00
2017-11-06T17:02:02.522Z,9.10
2017-11-06T17:04:30.765Z,9.10
2017-11-06T17:06:58.231Z,9.20
2017-11-06T17:09:25.711Z,9.10
2017-11-06T17:11:53.958Z,9.00
2017-11-06T17:14:21.426Z,9.20
2017-11-06T17:16:49.696Z,9.00
2017-11-06T17:19:17.297Z,9.20
2017-11-06T17:21:45.531Z,8.80
2017-11-06T17:24:13.026Z,8.90
2017-11-06T17:26:41.267Z,8.80
2017-11-06T17:29:08.734Z,8.90
2017-11-06T17:31:36.209Z,8.70
2017-11-06T17:34:03.675Z,8.80
2017-11-06T17:36:31.920Z,8.90
2017-11-06T17:38:59.384Z,9.10
2017-11-06T17:41:26.939Z,8.90
2017-11-06T17:43:54.408Z,8.80
2017-11-06T17:46:22.122Z,8.60
2017-11-06T17:48:49.682Z,8.60
2017-11-06T17:51:17.153Z,8.50
2017-11-06T17:53:44.655Z,8.50
2017-11-06T17:56:12.205Z,8.60
2017-11-06T17:58:39.720Z,8.60
2017-11-06T18:01:07.196Z,8.60
2017-11-06T18:03:34.664Z,8.60
2017-11-06T18:06:02.240Z,8.70
2017-11-06T18:08:29.703Z,8.70
2017-11-06T18:10:58.068Z,8.80
2017-11-06T18:13:25.529Z,8.90
2017-11-06T18:15:53.032Z,8.80
2017-11-06T18:18:20.508Z,8.80
2017-11-06T18:20:47.979Z,8.80
2017-11-06T18:23:15.474Z,8.70
2017-11-06T18:25:42.940Z,8.60
2017-11-06T18:28:10.507Z,8.60
2017-11-06T18:30:39.104Z,8.50
2017-11-06T18:33:06.640Z,8.40
2017-11-06T18:35:34.120Z,8.30
2017-11-06T18:38:01.615Z,8.20
2017-11-06T18:40:29.161Z,8.10
2017-11-06T18:42:56.749Z,8.20
2017-11-06T18:45:24.227Z,8.30
2017-11-06T18:47:51.705Z,8.30
2017-11-06T18:50:19.947Z,8.20
2017-11-06T18:52:47.581Z,8.20
2017-11-06T18:55:15.052Z,8.10
2017-11-06T18:57:42.538Z,8.10
2017-11-06T19:00:10.014Z,8.10
2017-11-06T19:02:38.275Z,8.10
2017-11-06T19:05:05.836Z,8.00
2017-11-06T19:07:33.316Z,8.00
2017-11-06T19:10:01.571Z,8.00
2017-11-06T19:12:29.042Z,8.20
2017-11-06T19:14:57.284Z,7.90
2017-11-06T19:17:24.747Z,7.90
2017-11-06T19:19:52.319Z,7.90
2017-11-06T19:22:21.321Z,7.90
2017-11-06T19:24:48.803Z,7.80
2017-11-06T19:27:17.047Z,7.80
2017-11-06T19:29:44.633Z,8.00
2017-11-06T19:32:12.942Z,7.80
2017-11-06T19:34:40.583Z,7.70
2017-11-06T19:37:08.840Z,7.80
2017-11-06T19:39:36.312Z,7.70
2017-11-06T19:42:04.547Z,7.80
2017-11-06T19:44:32.027Z,7.90
2017-11-06T19:46:59.580Z,7.80
2017-11-06T19:49:27.069Z,7.80
2017-11-06T19:51:55.343Z,7.70
2017-11-06T19:54:23.593Z,7.70
2017-11-06T19:56:51.121Z,7.70
2017-11-06T19:59:18.622Z,7.60
2017-11-06T20:01:46.083Z,7.60
2017-11-06T20:04:14.315Z,7.40
2017-11-06T20:06:42.495Z,7.20
2017-11-06T20:09:09.979Z,7.30
2017-11-06T20:11:37.524Z,7.20
2017-11-06T20:14:05.827Z,7.20
2017-11-06T20:16:33.344Z,7.20
2017-11-06T20:19:00.819Z,7.20
2017-11-06T20:21:30.850Z,7.10
2017-11-06T20:23:58.350Z,7.30
2017-11-06T20:26:26.575Z,7.00
2017-11-06T20:28:54.050Z,7.30
2017-11-06T20:31:21.561Z,7.00
2017-11-06T20:33:49.031Z,6.90
2017-11-06T20:36:16.540Z,6.80
2017-11-06T20:38:44.856Z,7.00
2017-11-06T20:41:12.360Z,6.70
2017-11-06T20:43:40.665Z,6.60
2017-11-06T20:46:08.917Z,6.60
2017-11-06T20:48:36.399Z,6.70
2017-11-06T20:51:04.634Z,6.50
2017-11-06T20:53:32.207Z,6.50
2017-11-06T20:56:00.455Z,6.40
2017-11-06T20:58:27.969Z,6.60
2017-11-06T21:00:56.215Z,6.30
2017-11-06T21:03:23.696Z,6.20
2017-11-06T21:05:52.044Z,6.50
2017-11-06T21:08:19.525Z,6.00
2017-11-06T21:10:47.071Z,6.40
2017-11-06T21:13:14.771Z,6.10
2017-11-06T21:15:42.250Z,6.00
2017-11-06T21:18:09.735Z,5.80
2017-11-06T21:20:37.208Z,5.80
2017-11-06T21:23:04.683Z,5.70
2017-11-06T21:25:32.143Z,5.50
2017-11-06T21:28:00.397Z,5.10
2017-11-06T21:30:34.360Z,5.10
2017-11-06T21:33:01.896Z,5.20
2017-11-06T21:35:30.151Z,5.10
2017-11-06T21:37:57.634Z,5.30
2017-11-06T21:40:25.870Z,5.10
2017-11-06T21:42:53.343Z,5.10
2017-11-06T21:45:20.826Z,5.10
2017-11-06T21:47:48.344Z,5.30
2017-11-06T21:50:15.818Z,5.20
2017-11-06T21:52:43.307Z,5.20
2017-11-06T21:55:11.539Z,5.10
2017-11-06T21:57:39.031Z,5.40
2017-11-06T22:00:07.263Z,5.10
2017-11-06T22:02:34.787Z,5.30
2017-11-06T22:05:03.014Z,5.20
2017-11-06T22:07:30.491Z,5.10
2017-11-06T22:09:57.964Z,5.30
2017-11-06T22:12:26.426Z,5.10
2017-11-06T22:14:54.701Z,5.10
2017-11-06T22:17:22.181Z,5.00
2017-11-06T22:19:50.432Z,4.50
2017-11-06T22:22:17.924Z,4.70
2017-11-06T22:24:45.404Z,4.60
2017-11-06T22:27:12.871Z,4.60
2017-11-06T22:29:40.359Z,4.50
2017-11-06T22:32:07.859Z,4.70
2017-11-06T22:34:35.337Z,4.70
2017-11-06T22:37:02.839Z,4.70
2017-11-06T22:39:30.524Z,4.70
2017-11-06T22:41:58.052Z,4.80
2017-11-06T22:44:25.519Z,4.60
2017-11-06T22:46:52.991Z,4.60
2017-11-06T22:49:20.511Z,4.80
2017-11-06T22:51:47.979Z,4.60
2017-11-06T22:54:15.452Z,4.30
2017-11-06T22:56:42.918Z,4.40
2017-11-06T22:59:10.406Z,4.50
2017-11-06T23:01:38.647Z,4.40
2017-11-06T23:04:06.163Z,4.20
2017-11-06T23:06:33.631Z,4.70
2017-11-06T23:09:01.231Z,4.50
2017-11-06T23:11:28.819Z,4.20
2017-11-06T23:13:56.349Z,4.20
2017-11-06T23:16:23.815Z,4.00
2017-11-06T23:18:51.292Z,4.10
2017-11-06T23:21:19.599Z,4.00
2017-11-06T23:23:47.082Z,3.90
2017-11-06T23:26:14.664Z,4.20
2017-11-06T23:28:43.021Z,3.70
2017-11-06T23:31:10.496Z,3.80
2017-11-06T23:33:38.027Z,3.90
2017-11-06T23:36:05.878Z,3.60
2017-11-06T23:38:33.387Z,3.90
2017-11-06T23:41:00.863Z,4.00
2017-11-06T23:43:29.094Z,3.80
2017-11-06T23:45:56.571Z,3.70
2017-11-06T23:48:24.045Z,3.90
2017-11-06T23:50:52.302Z,4.10
2017-11-06T23:53:19.765Z,3.90
2017-11-06T23:55:47.230Z,3.70
2017-11-06T23:58:14.696Z,4.00
